Time;durP1;ratioP1;P1;durP2;ratioP2;P2;SDS_P1;SDS_P2;PMS_P1;PMS_P2;Temp;Humidity;BMP_temperature;BMP_pressure;BME280_temperature;BME280_humidity;BME280_pressure;Samples;Min_cycle;Max_cycle;Signal;HPM_P1;HPM_P2
2022/02/23 00:00:40;;;;;;;;;;;;;;;;;;5109504;28;19998;-79
2022/02/23 00:03:05;;;;;;;;;;;;;;;;;;5098215;28;19963;-79
2022/02/23 00:05:31;;;;;;;;;;;;;;;;;;5097560;28;19939;-79
2022/02/23 00:07:56;;;;;;;;;;;;;;;;;;5097893;28;19966;-79
2022/02/23 00:10:21;;;;;;;;;;;;;;;;;;5097621;28;19920;-79
2022/02/23 00:12:47;;;;;;;;;;;;;;;;;;5096188;28;19912;-79
2022/02/23 00:15:12;;;;;;;;;;;;;;;;;;5079211;28;19916;-79
2022/02/23 00:17:37;;;;;;;;;;;;;;;;;;5096225;28;19926;-79
2022/02/23 00:20:04;;;;;;;;;;;;;;;;;;5097165;28;19916;-79
2022/02/23 00:22:32;;;;;;;;;;;;;;;;;;5097430;28;20018;-79
2022/02/23 00:24:57;;;;;;;;;;;;;;;;;;5097166;28;19916;-79
2022/02/23 00:27:22;;;;;;;;;;;;;;;;;;5097239;28;20007;-79
2022/02/23 00:29:48;;;;;;;;;;;;;;;;;;5097575;28;19942;-79
2022/02/23 00:32:13;;;;;;;;;;;;;;;;;;5095573;28;20281;-79
2022/02/23 00:34:38;;;;;;;;;;;;;;;;;;5078745;28;19916;-79
2022/02/23 00:37:04;;;;;;;;;;;;;;;;;;5096900;28;20026;-79
2022/02/23 00:39:29;;;;;;;;;;;;;;;;;;5096704;28;19962;-79
2022/02/23 00:41:54;;;;;;;;;;;;;;;;;;5097920;28;19916;-79
2022/02/23 00:44:20;;;;;;;;;;;;;;;;;;5097820;28;19937;-79
2022/02/23 00:46:45;;;;;;;;;;;;;;;;;;5097654;28;20389;-79
2022/02/23 00:49:11;;;;;;;;;;;;;;;;;;5097358;28;20320;-79
2022/02/23 00:51:36;;;;;;;;;;;;;;;;;;5095612;28;19926;-79
2022/02/23 00:54:02;;;;;;;;;;;;;;;;;;5095749;28;19916;-79
2022/02/23 00:56:27;;;;;;;;;;;;;;;;;;5096897;28;19983;-82
2022/02/23 00:58:53;;;;;;;;;;;;;;;;;;5097441;28;19969;-80
2022/02/23 01:01:18;;;;;;;;;;;;;;;;;;5088719;28;20006;-80
2022/02/23 01:03:43;;;;;;;;;;;;;;;;;;5076434;28;19912;-80
2022/02/23 01:06:09;;;;;;;;;;;;;;;;;;5076561;28;20393;-80
2022/02/23 01:08:35;;;;;;;;;;;;;;;;;;5076312;28;19952;-80
2022/02/23 01:11:00;;;;;;;;;;;;;;;;;;5076026;28;19917;-80
2022/02/23 01:13:25;;;;;;;;;;;;;;;;;;5076620;28;19936;-80
2022/02/23 01:15:51;;;;;;;;;;;;;;;;;;5082814;28;19916;-80
2022/02/23 01:18:17;;;;;;;;;;;;;;;;;;5098238;28;19924;-80
2022/02/23 01:20:45;;;;;;;;;;;;;;;;;;5097491;28;19939;-80
2022/02/23 01:23:11;;;;;;;;;;;;;;;;;;5097739;28;19920;-80
2022/02/23 01:25:37;;;;;;;;;;;;;;;;;;5096265;28;19973;-80
2022/02/23 01:28:04;;;;;;;;;;;;;;;;;;5112742;28;19922;-80
2022/02/23 01:30:29;;;;;;;;;;;;;;;;;;5117254;28;19916;-80
2022/02/23 01:32:55;;;;;;;;;;;;;;;;;;5117108;28;19915;-80
2022/02/23 01:35:20;;;;;;;;;;;;;;;;;;5117885;28;20008;-80
2022/02/23 01:37:46;;;;;;;;;;;;;;;;;;5117845;28;20296;-80
2022/02/23 01:40:14;;;;;;;;;;;;;;;;;;5118266;28;19916;-80
2022/02/23 01:42:39;;;;;;;;;;;;;;;;;;5105929;28;19916;-80
2022/02/23 01:45:05;;;;;;;;;;;;;;;;;;5097207;28;19962;-80
2022/02/23 01:47:30;;;;;;;;;;;;;;;;;;5097704;28;19912;-80
2022/02/23 01:49:56;;;;;;;;;;;;;;;;;;5096249;28;19924;-80
2022/02/23 01:52:25;;;;;;;;;;;;;;;;;;5097139;28;19927;-80
2022/02/23 01:54:50;;;;;;;;;;;;;;;;;;5097672;28;19924;-80
2022/02/23 01:57:16;;;;;;;;;;;;;;;;;;5096182;28;19924;-80
2022/02/23 01:59:41;;;;;;;;;;;;;;;;;;5097883;28;19979;-80
2022/02/23 02:02:06;;;;;;;;;;;;;;;;;;5097755;28;20349;-80
2022/02/23 02:04:33;;;;;;;;;;;;;;;;;;5097022;28;19916;-80
2022/02/23 02:06:58;;;;;;;;;;;;;;;;;;5097325;28;19923;-80
2022/02/23 02:09:23;;;;;;;;;;;;;;;;;;5097239;28;20289;-80
2022/02/23 02:11:49;;;;;;;;;;;;;;;;;;5093961;28;19920;-80
2022/02/23 02:14:14;;;;;;;;;;;;;;;;;;5076245;28;19931;-79
2022/02/23 02:16:39;;;;;;;;;;;;;;;;;;5103958;28;19928;-80
2022/02/23 02:19:06;;;;;;;;;;;;;;;;;;5117310;28;19919;-80
2022/02/23 02:21:50;;;;;;;;;;;;;;;;;;5116986;28;20483;-80
2022/02/23 02:24:16;;;;;;;;;;;;;;;;;;5116904;28;19916;-80
2022/02/23 02:26:41;;;;;;;;;;;;;;;;;;5116213;28;19923;-80
2022/02/23 02:29:06;;;;;;;;;;;;;;;;;;5116864;28;20003;-80
2022/02/23 02:31:32;;;;;;;;;;;;;;;;;;5117065;28;19923;-80
2022/02/23 02:33:57;;;;;;;;;;;;;;;;;;5115399;28;19915;-80
2022/02/23 02:36:22;;;;;;;;;;;;;;;;;;5117944;28;20292;-79
2022/02/23 02:38:48;;;;;;;;;;;;;;;;;;5119738;28;19927;-80
2022/02/23 02:41:13;;;;;;;;;;;;;;;;;;5119966;28;19923;-80
2022/02/23 02:43:38;;;;;;;;;;;;;;;;;;5118909;28;19937;-79
2022/02/23 02:46:04;;;;;;;;;;;;;;;;;;5110878;28;19916;-79
2022/02/23 02:48:29;;;;;;;;;;;;;;;;;;5098313;28;19923;-80
2022/02/23 02:50:54;;;;;;;;;;;;;;;;;;5098021;28;19916;-80
2022/02/23 02:53:20;;;;;;;;;;;;;;;;;;5099669;28;19920;-79
2022/02/23 02:55:45;;;;;;;;;;;;;;;;;;5099664;28;20010;-80
2022/02/23 02:58:10;;;;;;;;;;;;;;;;;;5099331;28;19983;-80
2022/02/23 03:00:36;;;;;;;;;;;;;;;;;;5100474;28;20471;-80
2022/02/23 03:03:01;;;;;;;;;;;;;;;;;;5099961;28;20366;-80
2022/02/23 03:05:29;;;;;;;;;;;;;;;;;;5098761;28;19928;-80
2022/02/23 03:07:54;;;;;;;;;;;;;;;;;;5100309;28;20011;-80
2022/02/23 03:10:20;;;;;;;;;;;;;;;;;;5099990;28;19958;-80
2022/02/23 03:12:45;;;;;;;;;;;;;;;;;;5099562;28;19923;-80
2022/02/23 03:15:10;;;;;;;;;;;;;;;;;;5100148;28;19923;-78
2022/02/23 03:17:36;;;;;;;;;;;;;;;;;;5099611;28;19927;-79
2022/02/23 03:20:02;;;;;;;;;;;;;;;;;;5100541;28;19916;-78
2022/02/23 03:22:27;;;;;;;;;;;;;;;;;;5099923;28;19916;-79
2022/02/23 03:24:52;;;;;;;;;;;;;;;;;;5099748;28;19940;-78
2022/02/23 03:27:17;;;;;;;;;;;;;;;;;;5098244;28;19956;-78
2022/02/23 03:29:43;;;;;;;;;;;;;;;;;;5104316;28;19915;-78
2022/02/23 03:32:08;;;;;;;;;;;;;;;;;;5117438;28;20353;-78
2022/02/23 03:34:33;;;;;;;;;;;;;;;;;;5120111;28;19916;-79
2022/02/23 03:36:59;;;;;;;;;;;;;;;;;;5119424;28;19930;-79
2022/02/23 03:39:24;;;;;;;;;;;;;;;;;;5122542;28;19968;-79
2022/02/23 03:41:50;;;;;;;;;;;;;;;;;;5120858;28;19915;-79
2022/02/23 03:44:15;;;;;;;;;;;;;;;;;;5120438;28;19915;-79
2022/02/23 03:46:40;;;;;;;;;;;;;;;;;;5120392;28;20331;-79
2022/02/23 03:49:06;;;;;;;;;;;;;;;;;;5113835;28;19922;-79
2022/02/23 03:51:31;;;;;;;;;;;;;;;;;;5099019;28;20011;-80
2022/02/23 03:53:56;;;;;;;;;;;;;;;;;;5097004;28;20007;-79
2022/02/23 03:56:42;;;;;;;;;;;;;;;;;;5098662;28;19916;-78
2022/02/23 03:59:08;;;;;;;;;;;;;;;;;;5097264;28;20419;-77
2022/02/23 04:01:38;;;;;;;;;;;;;;;;;;5095082;28;20312;-78
2022/02/23 04:04:03;;;;;;;;;;;;;;;;;;5094799;28;20335;-76
2022/02/23 04:06:30;;;;;;;;;;;;;;;;;;5095010;28;19920;-76
2022/02/23 04:08:56;;;;;;;;;;;;;;;;;;5095216;28;20010;-77
2022/02/23 04:11:21;;;;;;;;;;;;;;;;;;5095023;28;20022;-76
2022/02/23 04:13:46;;;;;;;;;;;;;;;;;;5093670;28;19923;-77
2022/02/23 04:16:12;;;;;;;;;;;;;;;;;;5092767;28;19924;-76
2022/02/23 04:18:37;;;;;;;;;;;;;;;;;;5091171;28;19916;-76
2022/02/23 04:21:04;;;;;;;;;;;;;;;;;;5092419;28;19991;-77
2022/02/23 04:23:29;;;;;;;;;;;;;;;;;;5092263;28;20061;-77
2022/02/23 04:25:54;;;;;;;;;;;;;;;;;;5092372;28;19981;-77
2022/02/23 04:28:21;;;;;;;;;;;;;;;;;;5092767;28;19916;-77
2022/02/23 04:30:46;;;;;;;;;;;;;;;;;;5093801;28;19919;-76
2022/02/23 04:33:11;;;;;;;;;;;;;;;;;;5093626;28;19923;-77
2022/02/23 04:35:37;;;;;;;;;;;;;;;;;;5094649;28;19963;-77
2022/02/23 04:38:02;;;;;;;;;;;;;;;;;;5093061;28;19927;-77
2022/02/23 04:40:27;;;;;;;;;;;;;;;;;;5093049;28;20014;-77
2022/02/23 04:42:53;;;;;;;;;;;;;;;;;;5094571;28;19916;-76
2022/02/23 04:45:18;;;;;;;;;;;;;;;;;;5094462;28;20023;-77
2022/02/23 04:47:43;;;;;;;;;;;;;;;;;;5093965;28;19916;-76
2022/02/23 04:50:09;;;;;;;;;;;;;;;;;;5094396;28;19916;-76
2022/02/23 04:52:34;;;;;;;;;;;;;;;;;;5094176;28;19981;-76
2022/02/23 04:54:59;;;;;;;;;;;;;;;;;;5094180;28;19920;-77
2022/02/23 04:57:25;;;;;;;;;;;;;;;;;;5093959;28;20343;-77
2022/02/23 04:59:50;;;;;;;;;;;;;;;;;;5091976;28;19923;-76
2022/02/23 05:02:16;;;;;;;;;;;;;;;;;;5093273;28;19924;-76
2022/02/23 05:04:41;;;;;;;;;;;;;;;;;;5092989;28;19965;-77
2022/02/23 05:07:07;;;;;;;;;;;;;;;;;;5093645;28;19969;-76
2022/02/23 05:09:32;;;;;;;;;;;;;;;;;;5092620;28;20298;-77
2022/02/23 05:11:57;;;;;;;;;;;;;;;;;;5093852;28;19916;-77
2022/02/23 05:14:23;;;;;;;;;;;;;;;;;;5093866;28;20375;-77
2022/02/23 05:16:48;;;;;;;;;;;;;;;;;;5093624;28;19963;-77
2022/02/23 05:19:14;;;;;;;;;;;;;;;;;;5093945;28;19917;-76
2022/02/23 05:21:39;;;;;;;;;;;;;;;;;;5092479;28;20336;-77
2022/02/23 05:24:05;;;;;;;;;;;;;;;;;;5092566;28;19916;-76
2022/02/23 05:26:30;;;;;;;;;;;;;;;;;;5092663;28;20019;-76
2022/02/23 05:28:55;;;;;;;;;;;;;;;;;;5093450;28;19924;-77
2022/02/23 05:31:21;;;;;;;;;;;;;;;;;;5093742;28;19962;-76
2022/02/23 05:33:46;;;;;;;;;;;;;;;;;;5092626;28;19920;-77
2022/02/23 05:36:11;;;;;;;;;;;;;;;;;;5093663;28;20380;-76
2022/02/23 05:38:36;;;;;;;;;;;;;;;;;;5094003;28;19924;-77
2022/02/23 05:41:03;;;;;;;;;;;;;;;;;;5092746;28;19920;-77
2022/02/23 05:43:29;;;;;;;;;;;;;;;;;;5093789;28;19920;-76
2022/02/23 05:45:54;;;;;;;;;;;;;;;;;;5093721;28;19923;-77
2022/02/23 05:48:20;;;;;;;;;;;;;;;;;;5093803;28;20370;-77
2022/02/23 05:50:45;;;;;;;;;;;;;;;;;;5093729;28;19923;-76
2022/02/23 05:53:10;;;;;;;;;;;;;;;;;;5092128;28;19920;-76
2022/02/23 05:55:36;;;;;;;;;;;;;;;;;;5093488;28;19927;-76
2022/02/23 05:58:01;;;;;;;;;;;;;;;;;;5091734;28;19927;-77
2022/02/23 06:00:26;;;;;;;;;;;;;;;;;;5091844;28;19927;-76
2022/02/23 06:02:51;;;;;;;;;;;;;;;;;;5093356;28;20011;-76
2022/02/23 06:05:17;;;;;;;;;;;;;;;;;;5092297;28;20007;-77
2022/02/23 06:07:42;;;;;;;;;;;;;;;;;;5093572;28;20426;-77
2022/02/23 06:10:08;;;;;;;;;;;;;;;;;;5093213;28;19923;-76
2022/02/23 06:12:33;;;;;;;;;;;;;;;;;;5087412;28;19916;-76
2022/02/23 06:14:59;;;;;;;;;;;;;;;;;;5076937;28;20453;-76
2022/02/23 06:17:25;;;;;;;;;;;;;;;;;;5076861;28;19924;-77
2022/02/23 06:19:50;;;;;;;;;;;;;;;;;;5075277;28;19924;-76
2022/02/23 06:22:15;;;;;;;;;;;;;;;;;;5076742;28;19916;-76
2022/02/23 06:24:41;;;;;;;;;;;;;;;;;;5076582;28;19921;-77
2022/02/23 06:27:06;;;;;;;;;;;;;;;;;;5076618;28;19920;-77
2022/02/23 06:29:31;;;;;;;;;;;;;;;;;;5076950;28;20003;-77
2022/02/23 06:32:06;;;;;;;;;;;;;;;;;;5091191;28;19916;-77
2022/02/23 06:34:32;;;;;;;;;;;;;;;;;;5097739;28;19948;-77
2022/02/23 06:37:02;;;;;;;;;;;;;;;;;;5095798;28;20281;-77
2022/02/23 06:39:28;;;;;;;;;;;;;;;;;;5096830;28;19923;-77
2022/02/23 06:41:53;;;;;;;;;;;;;;;;;;5096699;28;20006;-77
2022/02/23 06:44:20;;;;;;;;;;;;;;;;;;5096826;28;20007;-77
2022/02/23 06:46:47;;;;;;;;;;;;;;;;;;5096843;28;19916;-77
2022/02/23 06:49:13;;;;;;;;;;;;;;;;;;5095478;28;19932;-77
2022/02/23 06:51:39;;;;;;;;;;;;;;;;;;5096332;28;19920;-76
2022/02/23 06:54:05;;;;;;;;;;;;;;;;;;5096122;28;19920;-76
2022/02/23 06:56:30;;;;;;;;;;;;;;;;;;5096456;28;19923;-76
2022/02/23 06:58:55;;;;;;;;;;;;;;;;;;5096453;28;19916;-76
2022/02/23 07:01:21;;;;;;;;;;;;;;;;;;5094952;28;20396;-77
2022/02/23 07:03:47;;;;;;;;;;;;;;;;;;5095489;28;19919;-76
2022/02/23 07:06:13;;;;;;;;;;;;;;;;;;5096282;28;19923;-77
2022/02/23 07:08:40;;;;;;;;;;;;;;;;;;5096224;28;19922;-76
2022/02/23 07:11:06;;;;;;;;;;;;;;;;;;5096366;28;19916;-76
2022/02/23 07:13:31;;;;;;;;;;;;;;;;;;5096151;28;20014;-76
2022/02/23 07:15:56;;;;;;;;;;;;;;;;;;5095898;28;19962;-76
2022/02/23 07:18:22;;;;;;;;;;;;;;;;;;5096104;28;19927;-76
2022/02/23 07:20:47;;;;;;;;;;;;;;;;;;5096011;28;19920;-76
2022/02/23 07:23:12;;;;;;;;;;;;;;;;;;5093365;28;19965;-75
2022/02/23 07:25:37;;;;;;;;;;;;;;;;;;5094566;28;19912;-75
2022/02/23 07:28:04;;;;;;;;;;;;;;;;;;5095906;28;19916;-75
2022/02/23 07:30:31;;;;;;;;;;;;;;;;;;5095885;28;19916;-75
2022/02/23 07:32:57;;;;;;;;;;;;;;;;;;5095033;28;19916;-75
2022/02/23 07:35:22;;;;;;;;;;;;;;;;;;5095531;28;19916;-75
2022/02/23 07:37:50;;;;;;;;;;;;;;;;;;5095638;28;20357;-75
2022/02/23 07:40:18;;;;;;;;;;;;;;;;;;5095269;28;19923;-75
2022/02/23 07:42:44;;;;;;;;;;;;;;;;;;5095548;28;20335;-75
2022/02/23 07:45:09;;;;;;;;;;;;;;;;;;5095479;28;20007;-75
2022/02/23 07:47:34;;;;;;;;;;;;;;;;;;5095653;28;19916;-75
2022/02/23 07:50:00;;;;;;;;;;;;;;;;;;5095485;28;19916;-75
2022/02/23 07:52:27;;;;;;;;;;;;;;;;;;5094115;28;19927;-75
2022/02/23 07:54:53;;;;;;;;;;;;;;;;;;5095251;28;19916;-75
2022/02/23 07:57:18;;;;;;;;;;;;;;;;;;5095330;28;19935;-75
2022/02/23 07:59:43;;;;;;;;;;;;;;;;;;5095108;28;19962;-76
2022/02/23 08:02:09;;;;;;;;;;;;;;;;;;5094280;28;20372;-76
2022/02/23 08:04:34;;;;;;;;;;;;;;;;;;5094014;28;20010;-76
2022/02/23 08:07:00;;;;;;;;;;;;;;;;;;5093769;28;19916;-77
2022/02/23 08:09:26;;;;;;;;;;;;;;;;;;5095216;28;19923;-76
2022/02/23 08:11:51;;;;;;;;;;;;;;;;;;5094641;28;20015;-77
2022/02/23 08:14:17;;;;;;;;;;;;;;;;;;5094975;28;19952;-76
2022/02/23 08:19:31;;;;;;;;;;;;;;;;;;5094891;28;20396;-76
2022/02/23 08:21:57;;;;;;;;;;;;;;;;;;5095285;28;20441;-77
2022/02/23 08:24:23;;;;;;;;;;;;;;;;;;5093712;28;19908;-75
2022/02/23 08:26:48;;;;;;;;;;;;;;;;;;5094282;28;19916;-74
2022/02/23 08:29:16;;;;;;;;;;;;;;;;;;5093574;28;20346;-75
2022/02/23 08:31:42;;;;;;;;;;;;;;;;;;5093958;28;19916;-75
2022/02/23 08:34:07;;;;;;;;;;;;;;;;;;5092642;28;19912;-75
2022/02/23 08:36:32;;;;;;;;;;;;;;;;;;5093968;28;19931;-75
2022/02/23 08:38:58;;;;;;;;;;;;;;;;;;5093207;28;19916;-75
2022/02/23 08:41:24;;;;;;;;;;;;;;;;;;5092925;28;19969;-75
2022/02/23 08:43:49;;;;;;;;;;;;;;;;;;5094097;28;20439;-75
2022/02/23 08:46:15;;;;;;;;;;;;;;;;;;5094202;28;19916;-75
2022/02/23 08:48:40;;;;;;;;;;;;;;;;;;5094080;28;20370;-75
2022/02/23 08:51:05;;;;;;;;;;;;;;;;;;5094247;28;19916;-75
2022/02/23 08:53:30;;;;;;;;;;;;;;;;;;5094600;28;19920;-79
2022/02/23 08:55:56;;;;;;;;;;;;;;;;;;5094260;28;19939;-76
2022/02/23 08:58:21;;;;;;;;;;;;;;;;;;5092925;28;19920;-74
2022/02/23 09:00:48;;;;;;;;;;;;;;;;;;5094141;28;19919;-74
2022/02/23 09:03:14;;;;;;;;;;;;;;;;;;5094121;28;20010;-75
2022/02/23 09:05:39;;;;;;;;;;;;;;;;;;5093737;28;20010;-74
2022/02/23 09:08:04;;;;;;;;;;;;;;;;;;5092863;28;19916;-74
2022/02/23 09:10:30;;;;;;;;;;;;;;;;;;5094079;28;19970;-74
2022/02/23 09:12:56;;;;;;;;;;;;;;;;;;5092941;28;19916;-74
2022/02/23 09:15:21;;;;;;;;;;;;;;;;;;5093066;28;19916;-77
2022/02/23 09:17:46;;;;;;;;;;;;;;;;;;5095244;28;19964;-77
2022/02/23 09:20:12;;;;;;;;;;;;;;;;;;5095095;28;20006;-78
2022/02/23 09:22:37;;;;;;;;;;;;;;;;;;5093753;28;20362;-77
2022/02/23 09:25:03;;;;;;;;;;;;;;;;;;5095076;28;20354;-77
2022/02/23 09:27:28;;;;;;;;;;;;;;;;;;5094330;28;19987;-77
2022/02/23 09:29:54;;;;;;;;;;;;;;;;;;5094659;28;20435;-77
2022/02/23 09:32:20;;;;;;;;;;;;;;;;;;5096003;28;19974;-78
2022/02/23 09:34:45;;;;;;;;;;;;;;;;;;5095061;28;19962;-77
2022/02/23 09:37:10;;;;;;;;;;;;;;;;;;5094373;28;19963;-77
2022/02/23 09:39:36;;;;;;;;;;;;;;;;;;5094820;28;19924;-78
2022/02/23 09:42:02;;;;;;;;;;;;;;;;;;5093114;28;19916;-78
2022/02/23 09:44:28;;;;;;;;;;;;;;;;;;5095044;28;19927;-78
2022/02/23 09:46:53;;;;;;;;;;;;;;;;;;5096761;28;19923;-78
2022/02/23 09:49:19;;;;;;;;;;;;;;;;;;5080295;28;19916;-77
2022/02/23 09:51:46;;;;;;;;;;;;;;;;;;5079935;28;19920;-80
2022/02/23 09:54:11;;;;;;;;;;;;;;;;;;5097682;28;19923;-81
2022/02/23 09:56:39;;;;;;;;;;;;;;;;;;5102862;28;19916;-79
2022/02/23 09:59:05;;;;;;;;;;;;;;;;;;5099318;28;19916;-76
2022/02/23 10:01:32;;;;;;;;;;;;;;;;;;5098663;28;19923;-77
2022/02/23 10:03:58;;;;;;;;;;;;;;;;;;5099897;28;20373;-79
2022/02/23 10:06:26;;;;;;;;;;;;;;;;;;5100081;28;19920;-79
2022/02/23 10:08:58;;;;;;;;;;;;;;;;;;5098489;28;20002;-77
2022/02/23 10:11:26;;;;;;;;;;;;;;;;;;5098213;28;19923;-79
2022/02/23 10:13:51;;;;;;;;;;;;;;;;;;5097641;28;19923;-77
2022/02/23 10:16:17;;;;;;;;;;;;;;;;;;5096973;28;19916;-77
2022/02/23 10:18:42;;;;;;;;;;;;;;;;;;5096964;28;19920;-77
2022/02/23 10:21:08;;;;;;;;;;;;;;;;;;5095760;28;19916;-76
2022/02/23 10:23:33;;;;;;;;;;;;;;;;;;5095850;28;19966;-76
2022/02/23 10:26:04;;;;;;;;;;;;;;;;;;5096928;28;19963;-76
2022/02/23 10:28:32;;;;;;;;;;;;;;;;;;5096848;28;19916;-76
2022/02/23 10:30:58;;;;;;;;;;;;;;;;;;5095603;28;19924;-76
2022/02/23 10:33:24;;;;;;;;;;;;;;;;;;5096443;28;20370;-76
2022/02/23 10:35:53;;;;;;;;;;;;;;;;;;5095369;28;19958;-76
2022/02/23 10:38:23;;;;;;;;;;;;;;;;;;5096760;28;20289;-78
2022/02/23 10:40:48;;;;;;;;;;;;;;;;;;5098771;28;19920;-79
2022/02/23 10:43:24;;;;;;;;;;;;;;;;;;5098214;28;20011;-77
2022/02/23 10:45:50;;;;;;;;;;;;;;;;;;5096621;28;20429;-74
2022/02/23 10:48:28;;;;;;;;;;;;;;;;;;5096891;28;19916;-76
2022/02/23 10:50:54;;;;;;;;;;;;;;;;;;5095599;28;19916;-76
2022/02/23 10:53:24;;;;;;;;;;;;;;;;;;5096650;28;19927;-76
2022/02/23 10:55:49;;;;;;;;;;;;;;;;;;5096572;28;19916;-77
2022/02/23 10:58:14;;;;;;;;;;;;;;;;;;5096233;28;19926;-77
2022/02/23 11:00:42;;;;;;;;;;;;;;;;;;5103054;28;19920;-81
2022/02/23 11:03:09;;;;;;;;;;;;;;;;;;5106101;28;20365;-80
2022/02/23 11:05:35;;;;;;;;;;;;;;;;;;5090133;28;19920;-82
2022/02/23 11:08:03;;;;;;;;;;;;;;;;;;5104430;28;20258;-83
2022/02/23 11:10:29;;;;;;;;;;;;;;;;;;5104349;28;19916;-81
2022/02/23 11:12:55;;;;;;;;;;;;;;;;;;5085192;28;19912;-81
2022/02/23 11:15:22;;;;;;;;;;;;;;;;;;5100660;28;19965;-79
2022/02/23 11:17:48;;;;;;;;;;;;;;;;;;5101079;28;19924;-83
2022/02/23 11:20:17;;;;;;;;;;;;;;;;;;5102259;28;19923;-79
2022/02/23 11:22:43;;;;;;;;;;;;;;;;;;5101117;28;20300;-81
2022/02/23 11:25:09;;;;;;;;;;;;;;;;;;5101461;28;19923;-79
2022/02/23 11:27:36;;;;;;;;;;;;;;;;;;5100153;28;20297;-78
2022/02/23 11:30:06;;;;;;;;;;;;;;;;;;5099401;28;20071;-79
2022/02/23 11:32:32;;;;;;;;;;;;;;;;;;5100260;28;19924;-78
2022/02/23 11:34:58;;;;;;;;;;;;;;;;;;5099819;28;19919;-78
2022/02/23 11:37:23;;;;;;;;;;;;;;;;;;5101040;28;19966;-77
2022/02/23 11:39:50;;;;;;;;;;;;;;;;;;5096633;28;20367;-77
2022/02/23 11:42:22;;;;;;;;;;;;;;;;;;5099401;28;19920;-80
2022/02/23 11:44:50;;;;;;;;;;;;;;;;;;5100169;28;19916;-78
2022/02/23 11:47:24;;;;;;;;;;;;;;;;;;5098109;28;19962;-78
2022/02/23 11:49:53;;;;;;;;;;;;;;;;;;5099761;28;19916;-78
2022/02/23 11:52:19;;;;;;;;;;;;;;;;;;5097722;28;19981;-78
2022/02/23 11:54:54;;;;;;;;;;;;;;;;;;5097955;28;19923;-78
2022/02/23 11:57:36;;;;;;;;;;;;;;;;;;5086633;28;20266;-79
2022/02/23 12:00:02;;;;;;;;;;;;;;;;;;5085645;28;19984;-78
2022/02/23 12:02:30;;;;;;;;;;;;;;;;;;5088991;28;19924;-78
2022/02/23 12:04:56;;;;;;;;;;;;;;;;;;5082524;28;20370;-78
2022/02/23 12:07:22;;;;;;;;;;;;;;;;;;5077965;28;19924;-78
2022/02/23 12:09:56;;;;;;;;;;;;;;;;;;5077589;28;19927;-79
2022/02/23 12:12:41;;;;;;;;;;;;;;;;;;5078204;28;19916;-79
2022/02/23 12:15:11;;;;;;;;;;;;;;;;;;5089776;28;19916;-79
2022/02/23 12:17:42;;;;;;;;;;;;;;;;;;5096437;28;20065;-78
2022/02/23 12:20:08;;;;;;;;;;;;;;;;;;5098478;28;19916;-79
2022/02/23 12:22:37;;;;;;;;;;;;;;;;;;5097214;28;20421;-79
2022/02/23 12:25:05;;;;;;;;;;;;;;;;;;5096123;28;20274;-79
2022/02/23 12:27:34;;;;;;;;;;;;;;;;;;5097731;28;20397;-79
2022/02/23 12:30:00;;;;;;;;;;;;;;;;;;5096411;28;19920;-78
2022/02/23 12:32:26;;;;;;;;;;;;;;;;;;5097773;28;19923;-79
2022/02/23 12:34:57;;;;;;;;;;;;;;;;;;5097566;28;19923;-79
2022/02/23 12:37:23;;;;;;;;;;;;;;;;;;5097932;28;20335;-79
2022/02/23 12:39:49;;;;;;;;;;;;;;;;;;5096129;28;20365;-78
2022/02/23 12:42:15;;;;;;;;;;;;;;;;;;5097333;28;19968;-79
2022/02/23 12:44:47;;;;;;;;;;;;;;;;;;5097236;28;19968;-79
2022/02/23 12:47:15;;;;;;;;;;;;;;;;;;5097090;28;19916;-79
2022/02/23 12:49:41;;;;;;;;;;;;;;;;;;5098667;28;20395;-79
2022/02/23 12:52:07;;;;;;;;;;;;;;;;;;5080251;28;19923;-79
2022/02/23 12:54:32;;;;;;;;;;;;;;;;;;5098247;28;20000;-79
2022/02/23 12:56:59;;;;;;;;;;;;;;;;;;5098258;28;20415;-79
2022/02/23 12:59:26;;;;;;;;;;;;;;;;;;5094536;28;20378;-79
2022/02/23 13:02:04;;;;;;;;;;;;;;;;;;5084631;28;19917;-79
2022/02/23 13:04:29;;;;;;;;;;;;;;;;;;5085592;28;19923;-79
2022/02/23 13:06:57;;;;;;;;;;;;;;;;;;5086245;28;19916;-79
2022/02/23 13:09:25;;;;;;;;;;;;;;;;;;5085168;28;19916;-79
2022/02/23 13:11:52;;;;;;;;;;;;;;;;;;5095774;28;20380;-79
2022/02/23 13:14:18;;;;;;;;;;;;;;;;;;5099547;28;19924;-81
2022/02/23 13:16:48;;;;;;;;;;;;;;;;;;5089499;28;19923;-84
2022/02/23 13:19:25;;;;;;;;;;;;;;;;;;5097346;28;19916;-80
2022/02/23 13:21:51;;;;;;;;;;;;;;;;;;5096651;28;19924;-80
2022/02/23 13:24:17;;;;;;;;;;;;;;;;;;5097756;28;19912;-84
2022/02/23 13:26:45;;;;;;;;;;;;;;;;;;5086069;28;19924;-80
2022/02/23 13:29:12;;;;;;;;;;;;;;;;;;5082479;28;19916;-80
2022/02/23 13:31:38;;;;;;;;;;;;;;;;;;5078752;28;19916;-80
2022/02/23 13:34:24;;;;;;;;;;;;;;;;;;5076336;28;19962;-80
2022/02/23 13:36:51;;;;;;;;;;;;;;;;;;5078792;28;19916;-81
2022/02/23 13:39:18;;;;;;;;;;;;;;;;;;5097645;28;20388;-80
2022/02/23 13:41:51;;;;;;;;;;;;;;;;;;5098514;28;20290;-79
2022/02/23 13:44:17;;;;;;;;;;;;;;;;;;5097652;28;20318;-79
2022/02/23 13:46:44;;;;;;;;;;;;;;;;;;5096116;28;20397;-80
2022/02/23 13:49:09;;;;;;;;;;;;;;;;;;5098413;28;19925;-79
2022/02/23 13:51:35;;;;;;;;;;;;;;;;;;5096475;28;19920;-80
2022/02/23 13:54:06;;;;;;;;;;;;;;;;;;5102275;28;19923;-79
2022/02/23 13:56:31;;;;;;;;;;;;;;;;;;5098750;28;19916;-77
2022/02/23 13:59:00;;;;;;;;;;;;;;;;;;5093290;28;19977;-81
2022/02/23 14:01:25;;;;;;;;;;;;;;;;;;5079845;28;20029;-79
2022/02/23 14:03:52;;;;;;;;;;;;;;;;;;5096955;28;19916;-79
2022/02/23 14:06:19;;;;;;;;;;;;;;;;;;5099919;28;19916;-81
2022/02/23 14:08:46;;;;;;;;;;;;;;;;;;5081199;28;20014;-78
2022/02/23 14:11:15;;;;;;;;;;;;;;;;;;5098201;28;19939;-81
2022/02/23 14:13:40;;;;;;;;;;;;;;;;;;5097626;28;19969;-78
2022/02/23 14:16:07;;;;;;;;;;;;;;;;;;5098085;28;20369;-79
2022/02/23 14:18:33;;;;;;;;;;;;;;;;;;5096443;28;19920;-78
2022/02/23 14:21:07;;;;;;;;;;;;;;;;;;5100363;28;19916;-79
2022/02/23 14:23:33;;;;;;;;;;;;;;;;;;5101571;28;20317;-79
2022/02/23 14:26:00;;;;;;;;;;;;;;;;;;5100786;28;19916;-78
2022/02/23 14:28:45;;;;;;;;;;;;;;;;;;5112325;28;19919;-79
2022/02/23 14:31:21;;;;;;;;;;;;;;;;;;5119168;28;19919;-81
2022/02/23 14:33:46;;;;;;;;;;;;;;;;;;5119137;28;19916;-79
2022/02/23 14:36:12;;;;;;;;;;;;;;;;;;5122051;28;19957;-80
2022/02/23 14:38:37;;;;;;;;;;;;;;;;;;5121604;28;19920;-80
2022/02/23 14:41:02;;;;;;;;;;;;;;;;;;5121840;28;19926;-78
2022/02/23 14:43:28;;;;;;;;;;;;;;;;;;5104061;28;19961;-79
2022/02/23 14:45:53;;;;;;;;;;;;;;;;;;5099510;28;20117;-77
2022/02/23 14:48:19;;;;;;;;;;;;;;;;;;5099870;28;19947;-78
2022/02/23 14:50:47;;;;;;;;;;;;;;;;;;5097533;28;20261;-77
2022/02/23 14:53:12;;;;;;;;;;;;;;;;;;5098107;28;19920;-78
2022/02/23 14:55:38;;;;;;;;;;;;;;;;;;5098659;28;19926;-78
2022/02/23 14:58:03;;;;;;;;;;;;;;;;;;5099618;28;19926;-78
2022/02/23 15:00:29;;;;;;;;;;;;;;;;;;5099503;28;19946;-78
2022/02/23 15:03:00;;;;;;;;;;;;;;;;;;5099697;28;19970;-78
2022/02/23 15:05:26;;;;;;;;;;;;;;;;;;5098831;28;19951;-78
2022/02/23 15:07:53;;;;;;;;;;;;;;;;;;5097895;28;19923;-77
2022/02/23 15:10:19;;;;;;;;;;;;;;;;;;5096089;28;20258;-77
2022/02/23 15:12:44;;;;;;;;;;;;;;;;;;5097125;28;19923;-77
2022/02/23 15:15:10;;;;;;;;;;;;;;;;;;5095899;28;19955;-78
2022/02/23 15:17:35;;;;;;;;;;;;;;;;;;5097031;28;19966;-77
2022/02/23 15:20:02;;;;;;;;;;;;;;;;;;5095863;28;19912;-77
2022/02/23 15:22:28;;;;;;;;;;;;;;;;;;5095946;28;19973;-78
2022/02/23 15:24:53;;;;;;;;;;;;;;;;;;5095906;28;20331;-77
2022/02/23 15:27:18;;;;;;;;;;;;;;;;;;5097058;28;19916;-78
2022/02/23 15:29:45;;;;;;;;;;;;;;;;;;5097189;28;20358;-78
2022/02/23 15:32:10;;;;;;;;;;;;;;;;;;5095962;28;20004;-78
2022/02/23 15:34:35;;;;;;;;;;;;;;;;;;5097028;28;19959;-78
2022/02/23 15:37:01;;;;;;;;;;;;;;;;;;5097160;28;19920;-77
2022/02/23 15:39:27;;;;;;;;;;;;;;;;;;5096980;28;20340;-77
2022/02/23 15:41:52;;;;;;;;;;;;;;;;;;5097148;28;19958;-77
2022/02/23 15:44:18;;;;;;;;;;;;;;;;;;5095177;28;19916;-78
2022/02/23 15:46:43;;;;;;;;;;;;;;;;;;5097255;28;19915;-77
2022/02/23 15:49:10;;;;;;;;;;;;;;;;;;5096262;28;19923;-78
2022/02/23 15:51:35;;;;;;;;;;;;;;;;;;5094770;28;20331;-77
2022/02/23 15:54:01;;;;;;;;;;;;;;;;;;5095742;28;19962;-77
2022/02/23 15:56:26;;;;;;;;;;;;;;;;;;5096131;28;19916;-77
2022/02/23 15:58:52;;;;;;;;;;;;;;;;;;5094502;28;20339;-78
2022/02/23 16:01:18;;;;;;;;;;;;;;;;;;5098085;28;19963;-79
2022/02/23 16:03:44;;;;;;;;;;;;;;;;;;5095087;28;19957;-76
2022/02/23 16:06:10;;;;;;;;;;;;;;;;;;5094991;28;19943;-76
2022/02/23 16:08:35;;;;;;;;;;;;;;;;;;5094803;28;19942;-77
2022/02/23 16:11:01;;;;;;;;;;;;;;;;;;5096619;28;19923;-78
2022/02/23 16:13:26;;;;;;;;;;;;;;;;;;5097236;28;20112;-78
2022/02/23 16:15:52;;;;;;;;;;;;;;;;;;5097113;28;20255;-78
2022/02/23 16:18:17;;;;;;;;;;;;;;;;;;5098457;28;19975;-81
2022/02/23 16:20:43;;;;;;;;;;;;;;;;;;5098231;28;19916;-79
2022/02/23 16:23:08;;;;;;;;;;;;;;;;;;5097579;28;19920;-80
2022/02/23 16:25:39;;;;;;;;;;;;;;;;;;5097138;28;20390;-79
2022/02/23 16:28:05;;;;;;;;;;;;;;;;;;5096222;28;19919;-79
2022/02/23 16:30:30;;;;;;;;;;;;;;;;;;5097708;28;20453;-79
2022/02/23 16:32:56;;;;;;;;;;;;;;;;;;5097184;28;19916;-80
2022/02/23 16:35:21;;;;;;;;;;;;;;;;;;5097286;28;19986;-80
2022/02/23 16:37:46;;;;;;;;;;;;;;;;;;5097328;28;20026;-80
2022/02/23 16:40:12;;;;;;;;;;;;;;;;;;5095897;28;19916;-80
2022/02/23 16:42:37;;;;;;;;;;;;;;;;;;5083168;28;19920;-79